Aviation Digital Data Service (ADDS)

Output produced by METARs form (0433 UTC 26 June 2019)
found at http://www.aviationweather.gov/metar/data/
 
METAR text: ENDU 260420Z 22009KT 180V260 9999 FEW025 BKN040 09/04 Q1017 RMK WIND 1100FT 21012KT WIND 2200FT 24014KT
Conditions at: ENDU (BARDUFOSS (CIV/M, NO) observed 0420 UTC 26 June 2019
Temperature: 9.0°C (48°F)
Dewpoint: 4.0°C (39°F) [RH = 71%]
Pressure (altimeter): 30.03 inches Hg (1017.0 mb)
Winds: from the SW (220 degrees) at 10 MPH (9 knots; 4.6 m/s)
Visibility: 6 or more miles (10+ km)
Ceiling: 4000 feet AGL
Clouds: few clouds at 2500 feet AGL
broken clouds at 4000 feet AGL
Weather: no significant weather observed at this time

METAR text: ENDU 260350Z 23007KT 180V260 9999 VCSH FEW025 BKN035 09/04 Q1017 RMK WIND 1100FT 21011KT WIND 2200FT 25014KT
Conditions at: ENDU (BARDUFOSS (CIV/M, NO) observed 0350 UTC 26 June 2019
Temperature: 9.0°C (48°F)
Dewpoint: 4.0°C (39°F) [RH = 71%]
Pressure (altimeter): 30.03 inches Hg (1017.0 mb)
Winds: from the SW (230 degrees) at 8 MPH (7 knots; 3.6 m/s)
Visibility: 6 or more miles (10+ km)
Ceiling: 3500 feet AGL
Clouds: few clouds at 2500 feet AGL
broken clouds at 3500 feet AGL
Weather: VCSH  (showers in vicinity)

METAR text: ENDU 260320Z 23008KT 9999 VCSH FEW025 BKN040 10/03 Q1017 RMK WIND 1100FT 20011KT WIND 2200FT 25014KT
Conditions at: ENDU (BARDUFOSS (CIV/M, NO) observed 0320 UTC 26 June 2019
Temperature: 10.0°C (50°F)
Dewpoint: 3.0°C (37°F) [RH = 62%]
Pressure (altimeter): 30.03 inches Hg (1017.0 mb)
Winds: from the SW (230 degrees) at 9 MPH (8 knots; 4.1 m/s)
Visibility: 6 or more miles (10+ km)
Ceiling: 4000 feet AGL
Clouds: few clouds at 2500 feet AGL
broken clouds at 4000 feet AGL
Weather: VCSH  (showers in vicinity)

METAR text: ENDU 260250Z AUTO 22006KT 170V250 9999 OVC038/// 09/03 Q1017 RMK WIND 1100FT 19010KT WIND 2200FT 25011KT
Conditions at: ENDU (BARDUFOSS (CIV/M, NO) observed 0250 UTC 26 June 2019
Temperature: 9.0°C (48°F)
Dewpoint: 3.0°C (37°F) [RH = 66%]
Pressure (altimeter): 30.03 inches Hg (1017.0 mb)
Winds: from the SW (220 degrees) at 7 MPH (6 knots; 3.1 m/s)
Visibility: 6 or more miles (10+ km)
Ceiling: 3800 feet AGL
Clouds: overcast cloud deck at 3800 feet AGL
Weather: no significant weather observed at this time

METAR text: ENDU 260220Z AUTO 21007KT 180V250 9999 OVC041/// 09/03 Q1018 RMK WIND 1100FT 20014KT WIND 2200FT 24012KT
Conditions at: ENDU (BARDUFOSS (CIV/M, NO) observed 0220 UTC 26 June 2019
Temperature: 9.0°C (48°F)
Dewpoint: 3.0°C (37°F) [RH = 66%]
Pressure (altimeter): 30.06 inches Hg (1018.0 mb)
Winds: from the SSW (210 degrees) at 8 MPH (7 knots; 3.6 m/s)
Visibility: 6 or more miles (10+ km)
Ceiling: 4100 feet AGL
Clouds: overcast cloud deck at 4100 feet AGL
Weather: no significant weather observed at this time

METAR text: ENDU 260150Z AUTO 20007KT 160V250 9999 OVC041/// 09/03 Q1018 RMK WIND 1100FT 20016KT WIND 2200FT 23014KT
Conditions at: ENDU (BARDUFOSS (CIV/M, NO) observed 0150 UTC 26 June 2019
Temperature: 9.0°C (48°F)
Dewpoint: 3.0°C (37°F) [RH = 66%]
Pressure (altimeter): 30.06 inches Hg (1018.0 mb)
Winds: from the SSW (200 degrees) at 8 MPH (7 knots; 3.6 m/s)
Visibility: 6 or more miles (10+ km)
Ceiling: 4100 feet AGL
Clouds: overcast cloud deck at 4100 feet AGL
Weather: no significant weather observed at this time

METAR text: ENDU 260120Z AUTO 21008KT 160V250 9999 OVC040/// 09/03 Q1018 RMK WIND 1100FT 21017KT WIND 2200FT 23015KT
Conditions at: ENDU (BARDUFOSS (CIV/M, NO) observed 0120 UTC 26 June 2019
Temperature: 9.0°C (48°F)
Dewpoint: 3.0°C (37°F) [RH = 66%]
Pressure (altimeter): 30.06 inches Hg (1018.0 mb)
Winds: from the SSW (210 degrees) at 9 MPH (8 knots; 4.1 m/s)
Visibility: 6 or more miles (10+ km)
Ceiling: 4000 feet AGL
Clouds: overcast cloud deck at 4000 feet AGL
Weather: no significant weather observed at this time

METAR text: ENDU 260050Z AUTO 22007KT 180V270 9999 OVC041/// 09/03 Q1018 RMK WIND 1100FT 21017KT WIND 2200FT 23014KT
Conditions at: ENDU (BARDUFOSS (CIV/M, NO) observed 0050 UTC 26 June 2019
Temperature: 9.0°C (48°F)
Dewpoint: 3.0°C (37°F) [RH = 66%]
Pressure (altimeter): 30.06 inches Hg (1018.0 mb)
Winds: from the SW (220 degrees) at 8 MPH (7 knots; 3.6 m/s)
Visibility: 6 or more miles (10+ km)
Ceiling: 4100 feet AGL
Clouds: overcast cloud deck at 4100 feet AGL
Weather: no significant weather observed at this time

METAR text: ENDU 260020Z AUTO 22006KT 190V260 9999 SCT037/// OVC047/// 09/04 Q1019 RMK WIND 1100FT 22014KT WIND 2200FT 23017KT
Conditions at: ENDU (BARDUFOSS (CIV/M, NO) observed 0020 UTC 26 June 2019
Temperature: 9.0°C (48°F)
Dewpoint: 4.0°C (39°F) [RH = 71%]
Pressure (altimeter): 30.09 inches Hg (1019.0 mb)
Winds: from the SW (220 degrees) at 7 MPH (6 knots; 3.1 m/s)
Visibility: 6 or more miles (10+ km)
Ceiling: 4700 feet AGL
Clouds: scattered clouds at 3700 feet AGL
overcast cloud deck at 4700 feet AGL
Weather: no significant weather observed at this time

METAR text: ENDU 252350Z AUTO 22005KT 9999 OVC033/// 09/04 Q1019 RMK WIND 1100FT 21010KT WIND 2200FT 24019KT
Conditions at: ENDU (BARDUFOSS (CIV/M, NO) observed 2350 UTC 25 June 2019
Temperature: 9.0°C (48°F)
Dewpoint: 4.0°C (39°F) [RH = 71%]
Pressure (altimeter): 30.09 inches Hg (1019.0 mb)
Winds: from the SW (220 degrees) at 6 MPH (5 knots; 2.6 m/s)
Visibility: 6 or more miles (10+ km)
Ceiling: 3300 feet AGL
Clouds: overcast cloud deck at 3300 feet AGL
Weather: no significant weather observed at this time

METAR text: ENDU 252320Z AUTO 24005KT 9999 OVC033/// 09/04 Q1019 RMK WIND 1100FT 22009KT WIND 2200FT 25016KT
Conditions at: ENDU (BARDUFOSS (CIV/M, NO) observed 2320 UTC 25 June 2019
Temperature: 9.0°C (48°F)
Dewpoint: 4.0°C (39°F) [RH = 71%]
Pressure (altimeter): 30.09 inches Hg (1019.0 mb)
Winds: from the WSW (240 degrees) at 6 MPH (5 knots; 2.6 m/s)
Visibility: 6 or more miles (10+ km)
Ceiling: 3300 feet AGL
Clouds: overcast cloud deck at 3300 feet AGL
Weather: no significant weather observed at this time

METAR text: ENDU 252250Z AUTO 24005KT 200V280 9999 OVC033/// 10/04 Q1019 RMK WIND 1100FT 23008KT WIND 2200FT 25014KT
Conditions at: ENDU (BARDUFOSS (CIV/M, NO) observed 2250 UTC 25 June 2019
Temperature: 10.0°C (50°F)
Dewpoint: 4.0°C (39°F) [RH = 66%]
Pressure (altimeter): 30.09 inches Hg (1019.0 mb)
Winds: from the WSW (240 degrees) at 6 MPH (5 knots; 2.6 m/s)
Visibility: 6 or more miles (10+ km)
Ceiling: 3300 feet AGL
Clouds: overcast cloud deck at 3300 feet AGL
Weather: no significant weather observed at this time

METAR text: ENDU 252220Z AUTO 24005KT 200V270 9999 OVC034/// 10/04 Q1020 RMK WIND 1100FT 21009KT WIND 2200FT 25016KT
Conditions at: ENDU (BARDUFOSS (CIV/M, NO) observed 2220 UTC 25 June 2019
Temperature: 10.0°C (50°F)
Dewpoint: 4.0°C (39°F) [RH = 66%]
Pressure (altimeter): 30.12 inches Hg (1020.0 mb)
Winds: from the WSW (240 degrees) at 6 MPH (5 knots; 2.6 m/s)
Visibility: 6 or more miles (10+ km)
Ceiling: 3400 feet AGL
Clouds: overcast cloud deck at 3400 feet AGL
Weather: no significant weather observed at this time

METAR text: ENDU 252150Z AUTO 21005KT 9999 OVC036/// 10/04 Q1020 RMK WIND 1100FT 25007KT WIND 2200FT 25011KT
Conditions at: ENDU (BARDUFOSS (CIV/M, NO) observed 2150 UTC 25 June 2019
Temperature: 10.0°C (50°F)
Dewpoint: 4.0°C (39°F) [RH = 66%]
Pressure (altimeter): 30.12 inches Hg (1020.0 mb)
Winds: from the SSW (210 degrees) at 6 MPH (5 knots; 2.6 m/s)
Visibility: 6 or more miles (10+ km)
Ceiling: 3600 feet AGL
Clouds: overcast cloud deck at 3600 feet AGL
Weather: no significant weather observed at this time

METAR text: ENDU 252120Z AUTO 24005KT 200V270 9999 BKN035/// OVC043/// 10/04 Q1020 RMK WIND 1100FT 23004KT WIND 2200FT 25014KT
Conditions at: ENDU (BARDUFOSS (CIV/M, NO) observed 2120 UTC 25 June 2019
Temperature: 10.0°C (50°F)
Dewpoint: 4.0°C (39°F) [RH = 66%]
Pressure (altimeter): 30.12 inches Hg (1020.0 mb)
Winds: from the WSW (240 degrees) at 6 MPH (5 knots; 2.6 m/s)
Visibility: 6 or more miles (10+ km)
Ceiling: 3500 feet AGL
Clouds: broken clouds at 3500 feet AGL
overcast cloud deck at 4300 feet AGL
Weather: no significant weather observed at this time

METAR text: ENDU 252050Z 23003KT 200V280 9999 FEW030 BKN040 10/04 Q1020 RMK WIND 1100FT VRB01KT WIND 2200FT 25013KT
Conditions at: ENDU (BARDUFOSS (CIV/M, NO) observed 2050 UTC 25 June 2019
Temperature: 10.0°C (50°F)
Dewpoint: 4.0°C (39°F) [RH = 66%]
Pressure (altimeter): 30.12 inches Hg (1020.0 mb)
Winds: from the SW (230 degrees) at 3 MPH (3 knots; 1.5 m/s)
Visibility: 6 or more miles (10+ km)
Ceiling: 4000 feet AGL
Clouds: few clouds at 3000 feet AGL
broken clouds at 4000 feet AGL
Weather: no significant weather observed at this time

METAR text: ENDU 251950Z 24005KT 190V280 9999 FEW030 BKN045 11/05 Q1020 RMK WIND 1100FT 22008KT WIND 2200FT 24015KT
Conditions at: ENDU (BARDUFOSS (CIV/M, NO) observed 1950 UTC 25 June 2019
Temperature: 11.0°C (52°F)
Dewpoint: 5.0°C (41°F) [RH = 66%]
Pressure (altimeter): 30.12 inches Hg (1020.0 mb)
Winds: from the WSW (240 degrees) at 6 MPH (5 knots; 2.6 m/s)
Visibility: 6 or more miles (10+ km)
Ceiling: 4500 feet AGL
Clouds: few clouds at 3000 feet AGL
broken clouds at 4500 feet AGL
Weather: no significant weather observed at this time

METAR text: ENDU 251850Z VRB03KT 9999 FEW030 BKN045 11/05 Q1021 NOSIG RMK WIND 1100FT 21014KT WIND 2200FT 25015KT
Conditions at: ENDU (BARDUFOSS (CIV/M, NO) observed 1850 UTC 25 June 2019
Temperature: 11.0°C (52°F)
Dewpoint: 5.0°C (41°F) [RH = 66%]
Pressure (altimeter): 30.15 inches Hg (1021.0 mb)
Winds: variable direction winds at 3 MPH (3 knots; 1.5 m/s)
Visibility: 6 or more miles (10+ km)
Ceiling: 4500 feet AGL
Clouds: few clouds at 3000 feet AGL
broken clouds at 4500 feet AGL
Weather: no significant weather observed at this time

METAR text: ENDU 251750Z 21008KT 160V240 9999 VCSH FEW035 BKN045 11/05 Q1021 RMK WIND 1100FT 21015KT WIND 2200FT 26014KT
Conditions at: ENDU (BARDUFOSS (CIV/M, NO) observed 1750 UTC 25 June 2019
Temperature: 11.0°C (52°F)
Dewpoint: 5.0°C (41°F) [RH = 66%]
Pressure (altimeter): 30.15 inches Hg (1021.0 mb)
Winds: from the SSW (210 degrees) at 9 MPH (8 knots; 4.1 m/s)
Visibility: 6 or more miles (10+ km)
Ceiling: 4500 feet AGL
Clouds: few clouds at 3500 feet AGL
broken clouds at 4500 feet AGL
Weather: VCSH  (showers in vicinity)

METAR text: ENDU 251650Z 22006KT 9999 -SHRA FEW030 BKN045 12/05 Q1021 NOSIG RMK WIND 1100FT 24009KT WIND 2200FT 24014KT
Conditions at: ENDU (BARDUFOSS (CIV/M, NO) observed 1650 UTC 25 June 2019
Temperature: 12.0°C (54°F)
Dewpoint: 5.0°C (41°F) [RH = 62%]
Pressure (altimeter): 30.15 inches Hg (1021.0 mb)
Winds: from the SW (220 degrees) at 7 MPH (6 knots; 3.1 m/s)
Visibility: 6 or more miles (10+ km)
Ceiling: 4500 feet AGL
Clouds: few clouds at 3000 feet AGL
broken clouds at 4500 feet AGL
Weather: -SHRA  (light rain showers)

METAR text: ENDU 251620Z 21006KT 170V250 9999 VCSH FEW035 BKN045 12/05 Q1022 NOSIG RMK WIND 1100FT 24009KT WIND 2200FT 24017KT
Conditions at: ENDU (BARDUFOSS (CIV/M, NO) observed 1620 UTC 25 June 2019
Temperature: 12.0°C (54°F)
Dewpoint: 5.0°C (41°F) [RH = 62%]
Pressure (altimeter): 30.18 inches Hg (1022.0 mb)
Winds: from the SSW (210 degrees) at 7 MPH (6 knots; 3.1 m/s)
Visibility: 6 or more miles (10+ km)
Ceiling: 4500 feet AGL
Clouds: few clouds at 3500 feet AGL
broken clouds at 4500 feet AGL
Weather: VCSH  (showers in vicinity)

METAR text: ENDU 251550Z 23006KT 190V270 9999 VCSH FEW035 BKN045 12/04 Q1022 NOSIG RMK WIND 1100FT 23009KT WIND 2200FT 25016KT
Conditions at: ENDU (BARDUFOSS (CIV/M, NO) observed 1550 UTC 25 June 2019
Temperature: 12.0°C (54°F)
Dewpoint: 4.0°C (39°F) [RH = 58%]
Pressure (altimeter): 30.18 inches Hg (1022.0 mb)
Winds: from the SW (230 degrees) at 7 MPH (6 knots; 3.1 m/s)
Visibility: 6 or more miles (10+ km)
Ceiling: 4500 feet AGL
Clouds: few clouds at 3500 feet AGL
broken clouds at 4500 feet AGL
Weather: VCSH  (showers in vicinity)

METAR text: ENDU 251520Z 20009KT 9999 VCSH FEW035 BKN045 12/05 Q1022 NOSIG RMK WIND 1100FT 23013KT WIND 2200FT 25015KT
Conditions at: ENDU (BARDUFOSS (CIV/M, NO) observed 1520 UTC 25 June 2019
Temperature: 12.0°C (54°F)
Dewpoint: 5.0°C (41°F) [RH = 62%]
Pressure (altimeter): 30.18 inches Hg (1022.0 mb)
Winds: from the SSW (200 degrees) at 10 MPH (9 knots; 4.6 m/s)
Visibility: 6 or more miles (10+ km)
Ceiling: 4500 feet AGL
Clouds: few clouds at 3500 feet AGL
broken clouds at 4500 feet AGL
Weather: VCSH  (showers in vicinity)

METAR text: ENDU 251450Z 20008KT 150V240 9999 VCSH FEW035 BKN050 12/05 Q1022 NOSIG RMK WIND 1100FT 20014KT WIND 2200FT 24015KT
Conditions at: ENDU (BARDUFOSS (CIV/M, NO) observed 1450 UTC 25 June 2019
Temperature: 12.0°C (54°F)
Dewpoint: 5.0°C (41°F) [RH = 62%]
Pressure (altimeter): 30.18 inches Hg (1022.0 mb)
Winds: from the SSW (200 degrees) at 9 MPH (8 knots; 4.1 m/s)
Visibility: 6 or more miles (10+ km)
Ceiling: 5000 feet AGL
Clouds: few clouds at 3500 feet AGL
broken clouds at 5000 feet AGL
Weather: VCSH  (showers in vicinity)

METAR text: ENDU 251420Z 23010KT 190V260 9999 VCSH FEW030 BKN050 12/05 Q1023 NOSIG RMK WIND 1100FT 21016KT WIND 2200FT 24019KT
Conditions at: ENDU (BARDUFOSS (CIV/M, NO) observed 1420 UTC 25 June 2019
Temperature: 12.0°C (54°F)
Dewpoint: 5.0°C (41°F) [RH = 62%]
Pressure (altimeter): 30.21 inches Hg (1023.0 mb)
Winds: from the SW (230 degrees) at 12 MPH (10 knots; 5.1 m/s)
Visibility: 6 or more miles (10+ km)
Ceiling: 5000 feet AGL
Clouds: few clouds at 3000 feet AGL
broken clouds at 5000 feet AGL
Weather: VCSH  (showers in vicinity)

METAR text: ENDU 251350Z 22007KT 190V280 9999 VCSH FEW030 SCT045 BKN060 13/04 Q1023 NOSIG RMK WIND 1100FT 22012KT WIND 2200FT 25017KT
Conditions at: ENDU (BARDUFOSS (CIV/M, NO) observed 1350 UTC 25 June 2019
Temperature: 13.0°C (55°F)
Dewpoint: 4.0°C (39°F) [RH = 54%]
Pressure (altimeter): 30.21 inches Hg (1023.0 mb)
Winds: from the SW (220 degrees) at 8 MPH (7 knots; 3.6 m/s)
Visibility: 6 or more miles (10+ km)
Ceiling: 6000 feet AGL
Clouds: few clouds at 3000 feet AGL
scattered clouds at 4500 feet AGL
broken clouds at 6000 feet AGL
Weather: VCSH  (showers in vicinity)

METAR text: ENDU 251320Z 23008KT 180V260 9999 VCSH FEW035 SCT045 BKN060 13/04 Q1023 NOSIG RMK WIND 1100FT 22011KT WIND 2200FT 24018KT
Conditions at: ENDU (BARDUFOSS (CIV/M, NO) observed 1320 UTC 25 June 2019
Temperature: 13.0°C (55°F)
Dewpoint: 4.0°C (39°F) [RH = 54%]
Pressure (altimeter): 30.21 inches Hg (1023.0 mb)
Winds: from the SW (230 degrees) at 9 MPH (8 knots; 4.1 m/s)
Visibility: 6 or more miles (10+ km)
Ceiling: 6000 feet AGL
Clouds: few clouds at 3500 feet AGL
scattered clouds at 4500 feet AGL
broken clouds at 6000 feet AGL
Weather: VCSH  (showers in vicinity)

METAR text: ENDU 251250Z 22006KT 160V260 9999 VCSH FEW035 SCT045 BKN060 12/06 Q1023 NOSIG RMK WIND 1100FT 23011KT WIND 2200FT 25018KT
Conditions at: ENDU (BARDUFOSS (CIV/M, NO) observed 1250 UTC 25 June 2019
Temperature: 12.0°C (54°F)
Dewpoint: 6.0°C (43°F) [RH = 67%]
Pressure (altimeter): 30.21 inches Hg (1023.0 mb)
Winds: from the SW (220 degrees) at 7 MPH (6 knots; 3.1 m/s)
Visibility: 6 or more miles (10+ km)
Ceiling: 6000 feet AGL
Clouds: few clouds at 3500 feet AGL
scattered clouds at 4500 feet AGL
broken clouds at 6000 feet AGL
Weather: VCSH  (showers in vicinity)

METAR text: ENDU 251220Z 26009KT 220V310 9999 VCSH FEW030 SCT045 BKN060 13/04 Q1023 NOSIG RMK WIND 1100FT 24012KT WIND 2200FT 25019KT
Conditions at: ENDU (BARDUFOSS (CIV/M, NO) observed 1220 UTC 25 June 2019
Temperature: 13.0°C (55°F)
Dewpoint: 4.0°C (39°F) [RH = 54%]
Pressure (altimeter): 30.21 inches Hg (1023.0 mb)
Winds: from the W (260 degrees) at 10 MPH (9 knots; 4.6 m/s)
Visibility: 6 or more miles (10+ km)
Ceiling: 6000 feet AGL
Clouds: few clouds at 3000 feet AGL
scattered clouds at 4500 feet AGL
broken clouds at 6000 feet AGL
Weather: VCSH  (showers in vicinity)

METAR text: ENDU 251150Z 21010KT 180V250 9999 FEW030 SCT040 BKN060 13/04 Q1023 NOSIG RMK WIND 1100FT 25013KT WIND 2200FT 26014KT
Conditions at: ENDU (BARDUFOSS (CIV/M, NO) observed 1150 UTC 25 June 2019
Temperature: 13.0°C (55°F)
Dewpoint: 4.0°C (39°F) [RH = 54%]
Pressure (altimeter): 30.21 inches Hg (1023.0 mb)
Winds: from the SSW (210 degrees) at 12 MPH (10 knots; 5.1 m/s)
Visibility: 6 or more miles (10+ km)
Ceiling: 6000 feet AGL
Clouds: few clouds at 3000 feet AGL
scattered clouds at 4000 feet AGL
broken clouds at 6000 feet AGL
Weather: no significant weather observed at this time

METAR text: ENDU 251120Z 23005KT 160V270 9999 FEW025 SCT040 BKN060 13/04 Q1023 NOSIG RMK WIND 1100FT 24010KT WIND 2200FT 25012KT
Conditions at: ENDU (BARDUFOSS (CIV/M, NO) observed 1120 UTC 25 June 2019
Temperature: 13.0°C (55°F)
Dewpoint: 4.0°C (39°F) [RH = 54%]
Pressure (altimeter): 30.21 inches Hg (1023.0 mb)
Winds: from the SW (230 degrees) at 6 MPH (5 knots; 2.6 m/s)
Visibility: 6 or more miles (10+ km)
Ceiling: 6000 feet AGL
Clouds: few clouds at 2500 feet AGL
scattered clouds at 4000 feet AGL
broken clouds at 6000 feet AGL
Weather: no significant weather observed at this time

METAR text: ENDU 251050Z 28009KT 260V330 9999 FEW025 SCT040 BKN060 13/04 Q1023 NOSIG RMK WIND 1100FT 24008KT WIND 2200FT 26011KT
Conditions at: ENDU (BARDUFOSS (CIV/M, NO) observed 1050 UTC 25 June 2019
Temperature: 13.0°C (55°F)
Dewpoint: 4.0°C (39°F) [RH = 54%]
Pressure (altimeter): 30.21 inches Hg (1023.0 mb)
Winds: from the W (280 degrees) at 10 MPH (9 knots; 4.6 m/s)
Visibility: 6 or more miles (10+ km)
Ceiling: 6000 feet AGL
Clouds: few clouds at 2500 feet AGL
scattered clouds at 4000 feet AGL
broken clouds at 6000 feet AGL
Weather: no significant weather observed at this time

METAR text: ENDU 251020Z 22003KT 130V280 9999 VCSH FEW025 SCT040 BKN060 13/05 Q1024 NOSIG RMK WIND 1100FT 25009KT WIND 2200FT 27014KT
Conditions at: ENDU (BARDUFOSS (CIV/M, NO) observed 1020 UTC 25 June 2019
Temperature: 13.0°C (55°F)
Dewpoint: 5.0°C (41°F) [RH = 58%]
Pressure (altimeter): 30.24 inches Hg (1024.0 mb)
Winds: from the SW (220 degrees) at 3 MPH (3 knots; 1.5 m/s)
Visibility: 6 or more miles (10+ km)
Ceiling: 6000 feet AGL
Clouds: few clouds at 2500 feet AGL
scattered clouds at 4000 feet AGL
broken clouds at 6000 feet AGL
Weather: VCSH  (showers in vicinity)

METAR text: ENDU 250950Z 24007KT 200V280 9999 VCSH FEW025 SCT040 BKN050 12/04 Q1024 NOSIG RMK WIND 1100FT 24010KT WIND 2200FT 26012KT
Conditions at: ENDU (BARDUFOSS (CIV/M, NO) observed 0950 UTC 25 June 2019
Temperature: 12.0°C (54°F)
Dewpoint: 4.0°C (39°F) [RH = 58%]
Pressure (altimeter): 30.24 inches Hg (1024.0 mb)
Winds: from the WSW (240 degrees) at 8 MPH (7 knots; 3.6 m/s)
Visibility: 6 or more miles (10+ km)
Ceiling: 5000 feet AGL
Clouds: few clouds at 2500 feet AGL
scattered clouds at 4000 feet AGL
broken clouds at 5000 feet AGL
Weather: VCSH  (showers in vicinity)

METAR text: ENDU 250920Z 22008KT 160V270 9999 VCSH FEW025 SCT040 BKN050 12/05 Q1024 NOSIG RMK WIND 1100FT 26011KT WIND 2200FT 27012KT
Conditions at: ENDU (BARDUFOSS (CIV/M, NO) observed 0920 UTC 25 June 2019
Temperature: 12.0°C (54°F)
Dewpoint: 5.0°C (41°F) [RH = 62%]
Pressure (altimeter): 30.24 inches Hg (1024.0 mb)
Winds: from the SW (220 degrees) at 9 MPH (8 knots; 4.1 m/s)
Visibility: 6 or more miles (10+ km)
Ceiling: 5000 feet AGL
Clouds: few clouds at 2500 feet AGL
scattered clouds at 4000 feet AGL
broken clouds at 5000 feet AGL
Weather: VCSH  (showers in vicinity)

METAR text: ENDU 250850Z 20007KT 150V240 9999 VCSH FEW025 BKN045 12/06 Q1024 NOSIG RMK WIND 1100FT 21011KT WIND 2200FT 23016KT
Conditions at: ENDU (BARDUFOSS (CIV/M, NO) observed 0850 UTC 25 June 2019
Temperature: 12.0°C (54°F)
Dewpoint: 6.0°C (43°F) [RH = 67%]
Pressure (altimeter): 30.24 inches Hg (1024.0 mb)
Winds: from the SSW (200 degrees) at 8 MPH (7 knots; 3.6 m/s)
Visibility: 6 or more miles (10+ km)
Ceiling: 4500 feet AGL
Clouds: few clouds at 2500 feet AGL
broken clouds at 4500 feet AGL
Weather: VCSH  (showers in vicinity)

METAR text: ENDU 250820Z 22007KT 180V250 9999 VCSH FEW025 BKN040 10/06 Q1024 NOSIG RMK WIND 1100FT 21011KT WIND 2200FT 24015KT
Conditions at: ENDU (BARDUFOSS (CIV/M, NO) observed 0820 UTC 25 June 2019
Temperature: 10.0°C (50°F)
Dewpoint: 6.0°C (43°F) [RH = 76%]
Pressure (altimeter): 30.24 inches Hg (1024.0 mb)
Winds: from the SW (220 degrees) at 8 MPH (7 knots; 3.6 m/s)
Visibility: 6 or more miles (10+ km)
Ceiling: 4000 feet AGL
Clouds: few clouds at 2500 feet AGL
broken clouds at 4000 feet AGL
Weather: VCSH  (showers in vicinity)

METAR text: ENDU 250750Z 20010KT 9999 VCSH FEW025 SCT035 BKN050 11/05 Q1024 NOSIG RMK WIND 1100FT 21010KT WIND 2200FT 25014KT
Conditions at: ENDU (BARDUFOSS (CIV/M, NO) observed 0750 UTC 25 June 2019
Temperature: 11.0°C (52°F)
Dewpoint: 5.0°C (41°F) [RH = 66%]
Pressure (altimeter): 30.24 inches Hg (1024.0 mb)
Winds: from the SSW (200 degrees) at 12 MPH (10 knots; 5.1 m/s)
Visibility: 6 or more miles (10+ km)
Ceiling: 5000 feet AGL
Clouds: few clouds at 2500 feet AGL
scattered clouds at 3500 feet AGL
broken clouds at 5000 feet AGL
Weather: VCSH  (showers in vicinity)

METAR text: ENDU 250720Z 20006KT 130V250 9999 FEW025 SCT035 BKN050 11/05 Q1024 NOSIG RMK WIND 1100FT 19011KT WIND 2200FT 24013KT
Conditions at: ENDU (BARDUFOSS (CIV/M, NO) observed 0720 UTC 25 June 2019
Temperature: 11.0°C (52°F)
Dewpoint: 5.0°C (41°F) [RH = 66%]
Pressure (altimeter): 30.24 inches Hg (1024.0 mb)
Winds: from the SSW (200 degrees) at 7 MPH (6 knots; 3.1 m/s)
Visibility: 6 or more miles (10+ km)
Ceiling: 5000 feet AGL
Clouds: few clouds at 2500 feet AGL
scattered clouds at 3500 feet AGL
broken clouds at 5000 feet AGL
Weather: no significant weather observed at this time

METAR text: ENDU 250650Z 20009KT 170V230 9999 FEW020 BKN035 10/05 Q1024 NOSIG RMK WIND 1100FT 19012KT WIND 2200FT 24014KT
Conditions at: ENDU (BARDUFOSS (CIV/M, NO) observed 0650 UTC 25 June 2019
Temperature: 10.0°C (50°F)
Dewpoint: 5.0°C (41°F) [RH = 71%]
Pressure (altimeter): 30.24 inches Hg (1024.0 mb)
Winds: from the SSW (200 degrees) at 10 MPH (9 knots; 4.6 m/s)
Visibility: 6 or more miles (10+ km)
Ceiling: 3500 feet AGL
Clouds: few clouds at 2000 feet AGL
broken clouds at 3500 feet AGL
Weather: no significant weather observed at this time

METAR text: ENDU 250620Z 20005KT 140V270 9999 FEW020 BKN035 09/05 Q1024 NOSIG RMK WIND 1100FT 20013KT WIND 2200FT 24015KT
Conditions at: ENDU (BARDUFOSS (CIV/M, NO) observed 0620 UTC 25 June 2019
Temperature: 9.0°C (48°F)
Dewpoint: 5.0°C (41°F) [RH = 76%]
Pressure (altimeter): 30.24 inches Hg (1024.0 mb)
Winds: from the SSW (200 degrees) at 6 MPH (5 knots; 2.6 m/s)
Visibility: 6 or more miles (10+ km)
Ceiling: 3500 feet AGL
Clouds: few clouds at 2000 feet AGL
broken clouds at 3500 feet AGL
Weather: no significant weather observed at this time

METAR text: ENDU 250550Z 20006KT 160V240 9999 FEW020 BKN035 09/05 Q1024 NOSIG RMK WIND 1100FT 20012KT WIND 2200FT 23014KT
Conditions at: ENDU (BARDUFOSS (CIV/M, NO) observed 0550 UTC 25 June 2019
Temperature: 9.0°C (48°F)
Dewpoint: 5.0°C (41°F) [RH = 76%]
Pressure (altimeter): 30.24 inches Hg (1024.0 mb)
Winds: from the SSW (200 degrees) at 7 MPH (6 knots; 3.1 m/s)
Visibility: 6 or more miles (10+ km)
Ceiling: 3500 feet AGL
Clouds: few clouds at 2000 feet AGL
broken clouds at 3500 feet AGL
Weather: no significant weather observed at this time

METAR text: ENDU 250520Z 20006KT 150V230 9999 VCSH FEW008 BKN035 09/05 Q1024 NOSIG RMK WIND 1100FT 21010KT WIND 2200FT 23014KT
Conditions at: ENDU (BARDUFOSS (CIV/M, NO) observed 0520 UTC 25 June 2019
Temperature: 9.0°C (48°F)
Dewpoint: 5.0°C (41°F) [RH = 76%]
Pressure (altimeter): 30.24 inches Hg (1024.0 mb)
Winds: from the SSW (200 degrees) at 7 MPH (6 knots; 3.1 m/s)
Visibility: 6 or more miles (10+ km)
Ceiling: 3500 feet AGL
Clouds: few clouds at 800 feet AGL
broken clouds at 3500 feet AGL
Weather: VCSH  (showers in vicinity)

METAR text: ENDU 250450Z 20007KT 170V230 9999 VCSH FEW008 BKN035 09/05 Q1024 NOSIG RMK WIND 1100FT 20012KT WIND 2200FT 22011KT
Conditions at: ENDU (BARDUFOSS (CIV/M, NO) observed 0450 UTC 25 June 2019
Temperature: 9.0°C (48°F)
Dewpoint: 5.0°C (41°F) [RH = 76%]
Pressure (altimeter): 30.24 inches Hg (1024.0 mb)
Winds: from the SSW (200 degrees) at 8 MPH (7 knots; 3.6 m/s)
Visibility: 6 or more miles (10+ km)
Ceiling: 3500 feet AGL
Clouds: few clouds at 800 feet AGL
broken clouds at 3500 feet AGL
Weather: VCSH  (showers in vicinity)

METAR text: ENDU 250420Z 23007KT 180V270 9999 FEW005 BKN035 09/04 Q1024 RMK WIND 1100FT 20011KT WIND 2200FT 23015KT
Conditions at: ENDU (BARDUFOSS (CIV/M, NO) observed 0420 UTC 25 June 2019
Temperature: 9.0°C (48°F)
Dewpoint: 4.0°C (39°F) [RH = 71%]
Pressure (altimeter): 30.24 inches Hg (1024.0 mb)
Winds: from the SW (230 degrees) at 8 MPH (7 knots; 3.6 m/s)
Visibility: 6 or more miles (10+ km)
Ceiling: 3500 feet AGL
Clouds: few clouds at 500 feet AGL
broken clouds at 3500 feet AGL
Weather: no significant weather observed at this time

METAR text: ENDU 250350Z 20005KT 160V240 9999 VCSH FEW005 SCT030 BKN040 09/04 Q1024 RMK WIND 1100FT 20011KT WIND 2200FT 22010KT
Conditions at: ENDU (BARDUFOSS (CIV/M, NO) observed 0350 UTC 25 June 2019
Temperature: 9.0°C (48°F)
Dewpoint: 4.0°C (39°F) [RH = 71%]
Pressure (altimeter): 30.24 inches Hg (1024.0 mb)
Winds: from the SSW (200 degrees) at 6 MPH (5 knots; 2.6 m/s)
Visibility: 6 or more miles (10+ km)
Ceiling: 4000 feet AGL
Clouds: few clouds at 500 feet AGL
scattered clouds at 3000 feet AGL
broken clouds at 4000 feet AGL
Weather: VCSH  (showers in vicinity)

METAR text: ENDU 250320Z 19005KT 140V220 9999 FEW002 SCT035 BKN045 09/04 Q1024 RMK WIND 1100FT 21011KT WIND 2200FT 22008KT
Conditions at: ENDU (BARDUFOSS (CIV/M, NO) observed 0320 UTC 25 June 2019
Temperature: 9.0°C (48°F)
Dewpoint: 4.0°C (39°F) [RH = 71%]
Pressure (altimeter): 30.24 inches Hg (1024.0 mb)
Winds: from the S (190 degrees) at 6 MPH (5 knots; 2.6 m/s)
Visibility: 6 or more miles (10+ km)
Ceiling: 4500 feet AGL
Clouds: few clouds at 200 feet AGL
scattered clouds at 3500 feet AGL
broken clouds at 4500 feet AGL
Weather: no significant weather observed at this time

METAR text: ENDU 250250Z AUTO 21005KT 160V240 9999 SCT038/// BKN047/// BKN084/// 09/04 Q1025 RMK WIND 1100FT 20009KT WIND 2200FT 20008KT
Conditions at: ENDU (BARDUFOSS (CIV/M, NO) observed 0250 UTC 25 June 2019
Temperature: 9.0°C (48°F)
Dewpoint: 4.0°C (39°F) [RH = 71%]
Pressure (altimeter): 30.27 inches Hg (1025.0 mb)
Winds: from the SSW (210 degrees) at 6 MPH (5 knots; 2.6 m/s)
Visibility: 6 or more miles (10+ km)
Ceiling: 4700 feet AGL
Clouds: scattered clouds at 3800 feet AGL
broken clouds at 4700 feet AGL
broken clouds at 8400 feet AGL
Weather: no significant weather observed at this time

METAR text: ENDU 250220Z AUTO VRB02KT 9999 SCT040/// OVC088/// 08/05 Q1025 RMK WIND 1100FT 19007KT WIND 2200FT 21006KT
Conditions at: ENDU (BARDUFOSS (CIV/M, NO) observed 0220 UTC 25 June 2019
Temperature: 8.0°C (46°F)
Dewpoint: 5.0°C (41°F) [RH = 81%]
Pressure (altimeter): 30.27 inches Hg (1025.0 mb)
Winds: variable direction winds at 2 MPH (2 knots; 1.0 m/s)
Visibility: 6 or more miles (10+ km)
Ceiling: 8800 feet AGL
Clouds: scattered clouds at 4000 feet AGL
overcast cloud deck at 8800 feet AGL
Weather: no significant weather observed at this time

METAR text: ENDU 250150Z AUTO 22004KT 160V250 9999 BKN036/// OVC048/// 08/05 Q1025 RMK WIND 1100FT 21007KT WIND 2200FT 22008KT
Conditions at: ENDU (BARDUFOSS (CIV/M, NO) observed 0150 UTC 25 June 2019
Temperature: 8.0°C (46°F)
Dewpoint: 5.0°C (41°F) [RH = 81%]
Pressure (altimeter): 30.27 inches Hg (1025.0 mb)
Winds: from the SW (220 degrees) at 5 MPH (4 knots; 2.1 m/s)
Visibility: 6 or more miles (10+ km)
Ceiling: 3600 feet AGL
Clouds: broken clouds at 3600 feet AGL
overcast cloud deck at 4800 feet AGL
Weather: no significant weather observed at this time

METAR text: ENDU 250120Z AUTO 26004KT 230V290 9999 BKN039/// OVC049/// 08/05 Q1025 RMK WIND 1100FT 21007KT WIND 2200FT 23012KT
Conditions at: ENDU (BARDUFOSS (CIV/M, NO) observed 0120 UTC 25 June 2019
Temperature: 8.0°C (46°F)
Dewpoint: 5.0°C (41°F) [RH = 81%]
Pressure (altimeter): 30.27 inches Hg (1025.0 mb)
Winds: from the W (260 degrees) at 5 MPH (4 knots; 2.1 m/s)
Visibility: 6 or more miles (10+ km)
Ceiling: 3900 feet AGL
Clouds: broken clouds at 3900 feet AGL
overcast cloud deck at 4900 feet AGL
Weather: no significant weather observed at this time

METAR text: ENDU 250050Z AUTO 23004KT 200V270 9999 BKN035/// OVC082/// 08/05 Q1025 RMK WIND 1100FT 21007KT WIND 2200FT 24012KT
Conditions at: ENDU (BARDUFOSS (CIV/M, NO) observed 0050 UTC 25 June 2019
Temperature: 8.0°C (46°F)
Dewpoint: 5.0°C (41°F) [RH = 81%]
Pressure (altimeter): 30.27 inches Hg (1025.0 mb)
Winds: from the SW (230 degrees) at 5 MPH (4 knots; 2.1 m/s)
Visibility: 6 or more miles (10+ km)
Ceiling: 3500 feet AGL
Clouds: broken clouds at 3500 feet AGL
overcast cloud deck at 8200 feet AGL
Weather: no significant weather observed at this time

METAR text: ENDU 250020Z AUTO 21003KT 160V250 9999 OVC033/// 08/05 Q1025 RMK WIND 1100FT 21007KT WIND 2200FT 24009KT
Conditions at: ENDU (BARDUFOSS (CIV/M, NO) observed 0020 UTC 25 June 2019
Temperature: 8.0°C (46°F)
Dewpoint: 5.0°C (41°F) [RH = 81%]
Pressure (altimeter): 30.27 inches Hg (1025.0 mb)
Winds: from the SSW (210 degrees) at 3 MPH (3 knots; 1.5 m/s)
Visibility: 6 or more miles (10+ km)
Ceiling: 3300 feet AGL
Clouds: overcast cloud deck at 3300 feet AGL
Weather: no significant weather observed at this time

METAR text: ENDU 242350Z AUTO VRB02KT 9999 OVC036/// 08/05 Q1026 RMK WIND 1100FT 24006KT WIND 2200FT 26014KT
Conditions at: ENDU (BARDUFOSS (CIV/M, NO) observed 2350 UTC 24 June 2019
Temperature: 8.0°C (46°F)
Dewpoint: 5.0°C (41°F) [RH = 81%]
Pressure (altimeter): 30.30 inches Hg (1026.0 mb)
Winds: variable direction winds at 2 MPH (2 knots; 1.0 m/s)
Visibility: 6 or more miles (10+ km)
Ceiling: 3600 feet AGL
Clouds: overcast cloud deck at 3600 feet AGL
Weather: no significant weather observed at this time

METAR text: ENDU 242320Z AUTO 00000KT 9999 OVC036/// 08/05 Q1026 RMK WIND 1100FT 25008KT WIND 2200FT 24014KT
Conditions at: ENDU (BARDUFOSS (CIV/M, NO) observed 2320 UTC 24 June 2019
Temperature: 8.0°C (46°F)
Dewpoint: 5.0°C (41°F) [RH = 81%]
Pressure (altimeter): 30.30 inches Hg (1026.0 mb)
Winds: calm
Visibility: 6 or more miles (10+ km)
Ceiling: 3600 feet AGL
Clouds: overcast cloud deck at 3600 feet AGL
Weather: no significant weather observed at this time

METAR text: ENDU 242250Z AUTO 22003KT 180V260 9999 SCT030/// OVC039/// 08/05 Q1026 REUP RMK WIND 1100FT 25010KT WIND 2200FT 25017KT
Conditions at: ENDU (BARDUFOSS (CIV/M, NO) observed 2250 UTC 24 June 2019
Temperature: 8.0°C (46°F)
Dewpoint: 5.0°C (41°F) [RH = 81%]
Pressure (altimeter): 30.30 inches Hg (1026.0 mb)
Winds: from the SW (220 degrees) at 3 MPH (3 knots; 1.5 m/s)
Visibility: 6 or more miles (10+ km)
Ceiling: 3900 feet AGL
Clouds: scattered clouds at 3000 feet AGL
overcast cloud deck at 3900 feet AGL
Weather: no significant weather observed at this time

METAR text: ENDU 242220Z AUTO 24004KT 200V280 9999 -RA OVC033/// 08/05 Q1026 RMK WIND 1100FT 27011KT WIND 2200FT 26017KT
Conditions at: ENDU (BARDUFOSS (CIV/M, NO) observed 2220 UTC 24 June 2019
Temperature: 8.0°C (46°F)
Dewpoint: 5.0°C (41°F) [RH = 81%]
Pressure (altimeter): 30.30 inches Hg (1026.0 mb)
Winds: from the WSW (240 degrees) at 5 MPH (4 knots; 2.1 m/s)
Visibility: 6 or more miles (10+ km)
Ceiling: 3300 feet AGL
Clouds: overcast cloud deck at 3300 feet AGL
Weather: -RA  (light rain)

METAR text: ENDU 242150Z AUTO 27005KT 9999 OVC029/// 09/05 Q1026 RMK WIND 1100FT 27008KT WIND 2200FT 26020KT
Conditions at: ENDU (BARDUFOSS (CIV/M, NO) observed 2150 UTC 24 June 2019
Temperature: 9.0°C (48°F)
Dewpoint: 5.0°C (41°F) [RH = 76%]
Pressure (altimeter): 30.30 inches Hg (1026.0 mb)
Winds: from the W (270 degrees) at 6 MPH (5 knots; 2.6 m/s)
Visibility: 6 or more miles (10+ km)
Ceiling: 2900 feet AGL
Clouds: overcast cloud deck at 2900 feet AGL
Weather: no significant weather observed at this time

METAR text: ENDU 242120Z AUTO 25004KT 200V280 9999 SCT025/// OVC032/// 09/05 Q1026 RMK WIND 1100FT 27009KT WIND 2200FT 26020KT
Conditions at: ENDU (BARDUFOSS (CIV/M, NO) observed 2120 UTC 24 June 2019
Temperature: 9.0°C (48°F)
Dewpoint: 5.0°C (41°F) [RH = 76%]
Pressure (altimeter): 30.30 inches Hg (1026.0 mb)
Winds: from the WSW (250 degrees) at 5 MPH (4 knots; 2.1 m/s)
Visibility: 6 or more miles (10+ km)
Ceiling: 3200 feet AGL
Clouds: scattered clouds at 2500 feet AGL
overcast cloud deck at 3200 feet AGL
Weather: no significant weather observed at this time

METAR text: ENDU 242050Z 27003KT 220V330 9999 VCSH FEW020 BKN035 09/05 Q1026 RMK WIND 1100FT 25010KT WIND 2200FT 27019KT
Conditions at: ENDU (BARDUFOSS (CIV/M, NO) observed 2050 UTC 24 June 2019
Temperature: 9.0°C (48°F)
Dewpoint: 5.0°C (41°F) [RH = 76%]
Pressure (altimeter): 30.30 inches Hg (1026.0 mb)
Winds: from the W (270 degrees) at 3 MPH (3 knots; 1.5 m/s)
Visibility: 6 or more miles (10+ km)
Ceiling: 3500 feet AGL
Clouds: few clouds at 2000 feet AGL
broken clouds at 3500 feet AGL
Weather: VCSH  (showers in vicinity)

METAR text: ENDU 241950Z 27005KT 9999 VCSH FEW010 SCT025 BKN035 08/05 Q1026 RMK WIND 1100FT 26012KT WIND 2200FT 26017KT
Conditions at: ENDU (BARDUFOSS (CIV/M, NO) observed 1950 UTC 24 June 2019
Temperature: 8.0°C (46°F)
Dewpoint: 5.0°C (41°F) [RH = 81%]
Pressure (altimeter): 30.30 inches Hg (1026.0 mb)
Winds: from the W (270 degrees) at 6 MPH (5 knots; 2.6 m/s)
Visibility: 6 or more miles (10+ km)
Ceiling: 3500 feet AGL
Clouds: few clouds at 1000 feet AGL
scattered clouds at 2500 feet AGL
broken clouds at 3500 feet AGL
Weather: VCSH  (showers in vicinity)

METAR text: ENDU 241850Z 22006KT 9999 VCSH FEW015 SCT030 BKN045 10/05 Q1025 RMK WIND 1100FT 23006KT WIND 2200FT 25016KT
Conditions at: ENDU (BARDUFOSS (CIV/M, NO) observed 1850 UTC 24 June 2019
Temperature: 10.0°C (50°F)
Dewpoint: 5.0°C (41°F) [RH = 71%]
Pressure (altimeter): 30.27 inches Hg (1025.0 mb)
Winds: from the SW (220 degrees) at 7 MPH (6 knots; 3.1 m/s)
Visibility: 6 or more miles (10+ km)
Ceiling: 4500 feet AGL
Clouds: few clouds at 1500 feet AGL
scattered clouds at 3000 feet AGL
broken clouds at 4500 feet AGL
Weather: VCSH  (showers in vicinity)

METAR text: ENDU 241750Z 22006KT 180V250 9999 VCSH FEW025 BKN040 10/05 Q1025 RMK WIND 1100FT 22014KT WIND 2200FT 24010KT
Conditions at: ENDU (BARDUFOSS (CIV/M, NO) observed 1750 UTC 24 June 2019
Temperature: 10.0°C (50°F)
Dewpoint: 5.0°C (41°F) [RH = 71%]
Pressure (altimeter): 30.27 inches Hg (1025.0 mb)
Winds: from the SW (220 degrees) at 7 MPH (6 knots; 3.1 m/s)
Visibility: 6 or more miles (10+ km)
Ceiling: 4000 feet AGL
Clouds: few clouds at 2500 feet AGL
broken clouds at 4000 feet AGL
Weather: VCSH  (showers in vicinity)

METAR text: ENDU 241650Z 25003KT 160V290 9999 VCSH FEW025 SCT035 BKN050 11/05 Q1025 NOSIG RMK WIND 1100FT VRB03KT WIND 2200FT 25013KT
Conditions at: ENDU (BARDUFOSS (CIV/M, NO) observed 1650 UTC 24 June 2019
Temperature: 11.0°C (52°F)
Dewpoint: 5.0°C (41°F) [RH = 66%]
Pressure (altimeter): 30.27 inches Hg (1025.0 mb)
Winds: from the WSW (250 degrees) at 3 MPH (3 knots; 1.5 m/s)
Visibility: 6 or more miles (10+ km)
Ceiling: 5000 feet AGL
Clouds: few clouds at 2500 feet AGL
scattered clouds at 3500 feet AGL
broken clouds at 5000 feet AGL
Weather: VCSH  (showers in vicinity)

Forecast for: ENDU (BARDUFOSS (CIV/M, NO)
Text: TAF ENDU 2600/2624 23008KT 9999 FEW015 BKN030
Forecast period: 0000 UTC 26 June 2019 to 0000 UTC 27 June 2019
Forecast type: FROM: standard forecast or significant change
Winds: from the SW (230 degrees) at 9 MPH (8 knots; 4.1 m/s)
Visibility: 6 or more miles 10+ km)
Ceiling: 3000 feet AGL
Clouds: few clouds at 1500 feet AGL
broken clouds at 3000 feet AGL
Weather: no significant weather forecast for this period
Text: TEMPO 2612/2620 24015G25KT SHRA
Forecast period: 1200 to 2000 UTC 26 June 2019
Forecast type: TEMPORARY: The following changes expected for less than half the time period
Winds: from the WSW (240 degrees) at 17 MPH (15 knots; 7.7 m/s)
gusting to 29 MPH (25 knots; 12.9 m/s)
Visibility: missing
Ceiling: unknown
Clouds: missing
Weather: SHRA  (rain showers)
Text: TEMPO 2620/2624 29012KT SHRA BKN014
Forecast period: 2000 UTC 26 June 2019 to 0000 UTC 27 June 2019
Forecast type: TEMPORARY: The following changes expected for less than half the time period
Winds: from the WNW (290 degrees) at 14 MPH (12 knots; 6.2 m/s)
Visibility: missing
Ceiling: 1400 feet AGL
Clouds: broken clouds at 1400 feet AGL
Weather: SHRA  (rain showers)